Terminal Aerodrome Forecast
Issued by NWS Duluth, MN

Home | Current Version | Previous Version | Text Only | Print | Product List | Glossary On
Versions: 1 2 3 4 5 6 7 8 9 10 11 12 13 14 15 16 17 18 19 20 21 22 23 24 25 26 27 28 29 30 31 32 33 34 35 36
000
FTUS43 KDLH 301100
TAFDLH
TAF
KDLH 301131Z 3012/0112 10010KT P6SM OVC007
     FM301600 10011KT P6SM OVC010
     FM302000 09011G17KT P6SM BKN013
      TEMPO 3021/0101 SCT013
     FM010100 10010KT P6SM OVC010
     FM010600 10010KT P6SM OVC007 PROB30 0108/0112 6SM -SHRA BR=

USA.gov is the U.S. government's official web portal to all federal, state and local government web resources and services.